Time;durP1;ratioP1;P1;durP2;ratioP2;P2;SDS_P1;SDS_P2;PMS_P1;PMS_P2;Temp;Humidity;BMP_temperature;BMP_pressure;BME280_temperature;BME280_humidity;BME280_pressure;Samples;Min_cycle;Max_cycle;Signal;HPM_P1;HPM_P2
2022/04/02 00:00:23;;;;;;;;;;;3.50;99.90;;;;;;5044157;28;20231;-73
2022/04/02 00:02:49;;;;;;;;;;;3.40;99.90;;;;;;5038736;28;19954;-72
2022/04/02 00:05:14;;;;;;;;;;;3.40;99.90;;;;;;5054652;28;19984;-72
2022/04/02 00:07:40;;;;;;;;;;;3.40;99.90;;;;;;5048043;28;20037;-73
2022/04/02 00:10:07;;;;;;;;;;;3.30;99.90;;;;;;5047464;28;19923;-72
2022/04/02 00:12:32;;;;;;;;;;;3.30;99.90;;;;;;5028487;28;19982;-73
2022/04/02 00:14:59;;;;;;;;;;;3.30;99.90;;;;;;5044819;28;19913;-74
2022/04/02 00:17:25;;;;;;;;;;;3.20;99.90;;;;;;5028408;28;20266;-73
2022/04/02 00:19:50;;;;;;;;;;;3.20;99.90;;;;;;5038563;28;19936;-73
2022/04/02 00:22:16;;;;;;;;;;;3.10;99.90;;;;;;5030391;28;19913;-72
2022/04/02 00:24:42;;;;;;;;;;;3.20;99.90;;;;;;5053558;28;19913;-72
2022/04/02 00:27:08;;;;;;;;;;;3.20;99.90;;;;;;5048409;28;19963;-72
2022/04/02 00:29:34;;;;;;;;;;;3.20;99.90;;;;;;5053305;28;19948;-72
2022/04/02 00:32:00;;;;;;;;;;;3.20;99.90;;;;;;5051782;28;19944;-72
2022/04/02 00:34:25;;;;;;;;;;;3.20;99.90;;;;;;5045967;28;19999;-73
2022/04/02 00:36:51;;;;;;;;;;;3.20;99.90;;;;;;5051700;28;19916;-72
2022/04/02 00:39:16;;;;;;;;;;;3.20;99.90;;;;;;5033443;28;19909;-73
2022/04/02 00:41:42;;;;;;;;;;;3.10;99.90;;;;;;5044965;28;19917;-72
2022/04/02 00:44:12;;;;;;;;;;;3.10;99.90;;;;;;5044344;28;19920;-72
2022/04/02 00:46:39;;;;;;;;;;;3.10;99.90;;;;;;5046298;28;20004;-73
2022/04/02 00:49:05;;;;;;;;;;;3.10;99.90;;;;;;5052064;28;19917;-72
2022/04/02 00:51:31;;;;;;;;;;;3.10;99.90;;;;;;5028658;28;20158;-73
2022/04/02 00:53:57;;;;;;;;;;;3.10;99.90;;;;;;5042586;28;19920;-72
2022/04/02 00:56:23;;;;;;;;;;;3.20;99.90;;;;;;5034605;28;19913;-72
2022/04/02 00:58:49;;;;;;;;;;;3.20;99.90;;;;;;5034308;28;19913;-73
2022/04/02 01:01:16;;;;;;;;;;;3.30;99.90;;;;;;5052060;28;20216;-74
2022/04/02 01:03:43;;;;;;;;;;;3.20;99.90;;;;;;5049533;28;20321;-73
2022/04/02 01:06:10;;;;;;;;;;;3.20;99.90;;;;;;5024270;28;20012;-73
2022/04/02 01:08:36;;;;;;;;;;;3.20;99.90;;;;;;5053382;28;20333;-73
2022/04/02 01:11:03;;;;;;;;;;;3.20;99.90;;;;;;5046352;28;20007;-73
2022/04/02 01:13:29;;;;;;;;;;;3.10;99.90;;;;;;5046855;28;20011;-73
2022/04/02 01:15:56;;;;;;;;;;;3.10;99.90;;;;;;5050268;28;19921;-72
2022/04/02 01:18:22;;;;;;;;;;;3.10;99.90;;;;;;5038154;28;19940;-73
2022/04/02 01:20:48;;;;;;;;;;;3.10;99.90;;;;;;5047104;28;20284;-73
2022/04/02 01:23:14;;;;;;;;;;;3.00;99.90;;;;;;5049434;28;20254;-73
2022/04/02 01:25:40;;;;;;;;;;;3.00;99.90;;;;;;5049488;28;19959;-74
2022/04/02 01:28:06;;;;;;;;;;;3.00;99.90;;;;;;5054645;28;19948;-72
2022/04/02 01:30:32;;;;;;;;;;;2.90;99.90;;;;;;5029134;28;20366;-72
2022/04/02 01:32:58;;;;;;;;;;;2.90;99.90;;;;;;5045277;28;20019;-74
2022/04/02 01:35:24;;;;;;;;;;;3.00;99.90;;;;;;5048279;28;19913;-72
2022/04/02 01:37:50;;;;;;;;;;;2.90;99.90;;;;;;5045425;28;20334;-73
2022/04/02 01:40:15;;;;;;;;;;;2.90;99.90;;;;;;5052433;28;20373;-73
2022/04/02 01:42:41;;;;;;;;;;;2.70;99.90;;;;;;5029175;28;19921;-73
2022/04/02 01:45:07;;;;;;;;;;;2.70;99.90;;;;;;5046696;28;19917;-73
2022/04/02 01:47:33;;;;;;;;;;;2.70;99.90;;;;;;5035882;28;19920;-72
2022/04/02 01:49:58;;;;;;;;;;;2.60;99.90;;;;;;5050539;28;21345;-73
2022/04/02 01:52:24;;;;;;;;;;;2.70;99.90;;;;;;5043332;28;20189;-72
2022/04/02 01:54:49;;;;;;;;;;;2.70;99.90;;;;;;5035166;28;19921;-72
2022/04/02 01:57:16;;;;;;;;;;;2.70;99.90;;;;;;5042146;28;20263;-73
2022/04/02 01:59:44;;;;;;;;;;;2.60;99.90;;;;;;5051307;28;19923;-72
2022/04/02 02:02:10;;;;;;;;;;;2.60;99.90;;;;;;5034961;28;20267;-72
2022/04/02 02:04:37;;;;;;;;;;;2.60;99.90;;;;;;5047506;28;19913;-72
2022/04/02 02:07:06;;;;;;;;;;;2.60;99.90;;;;;;5043620;28;19940;-74
2022/04/02 02:09:33;;;;;;;;;;;2.50;99.90;;;;;;5049087;28;19913;-73
2022/04/02 02:11:58;;;;;;;;;;;2.50;99.90;;;;;;5034709;28;20007;-74
2022/04/02 02:14:24;;;;;;;;;;;2.40;99.90;;;;;;5023044;28;20034;-73
2022/04/02 02:16:49;;;;;;;;;;;2.50;99.90;;;;;;5046758;28;20033;-73
2022/04/02 02:19:15;;;;;;;;;;;2.50;99.90;;;;;;5043219;28;19987;-73
2022/04/02 02:21:41;;;;;;;;;;;2.60;99.90;;;;;;5044301;28;19921;-76
2022/04/02 02:24:06;;;;;;;;;;;2.60;99.90;;;;;;5047835;28;19913;-72
2022/04/02 02:26:32;;;;;;;;;;;2.70;99.90;;;;;;5039544;28;19960;-73
2022/04/02 02:28:58;;;;;;;;;;;2.70;99.90;;;;;;5044091;28;20011;-73
2022/04/02 02:31:24;;;;;;;;;;;2.70;99.90;;;;;;5035175;28;19912;-73
2022/04/02 02:36:33;;;;;;;;;;;2.60;99.90;;;;;;5049688;28;19987;-72
2022/04/02 02:38:59;;;;;;;;;;;2.50;99.90;;;;;;5044739;28;19912;-71
2022/04/02 02:41:25;;;;;;;;;;;2.50;99.90;;;;;;5049038;28;20193;-74
2022/04/02 02:43:50;;;;;;;;;;;2.50;99.90;;;;;;5040311;28;19916;-73
2022/04/02 02:46:17;;;;;;;;;;;2.40;99.90;;;;;;5029334;28;20007;-73
2022/04/02 02:48:44;;;;;;;;;;;2.40;99.90;;;;;;5055729;28;19924;-74
2022/04/02 02:51:09;;;;;;;;;;;2.30;99.90;;;;;;5050510;28;19913;-72
2022/04/02 02:53:35;;;;;;;;;;;2.30;99.90;;;;;;5028128;28;19923;-73
2022/04/02 02:56:00;;;;;;;;;;;2.40;99.90;;;;;;5066730;28;19917;-72
2022/04/02 02:58:26;;;;;;;;;;;2.30;99.90;;;;;;5049599;28;19920;-73
2022/04/02 03:00:51;;;;;;;;;;;2.30;99.90;;;;;;5054908;28;20310;-72
2022/04/02 03:03:17;;;;;;;;;;;2.20;99.90;;;;;;5047901;28;19975;-72
2022/04/02 03:05:43;;;;;;;;;;;2.20;99.90;;;;;;5048276;28;19917;-73
2022/04/02 03:08:08;;;;;;;;;;;2.20;99.90;;;;;;5050048;28;19913;-72
2022/04/02 03:10:34;;;;;;;;;;;2.20;99.90;;;;;;5053860;28;20211;-73
2022/04/02 03:12:59;;;;;;;;;;;2.10;99.90;;;;;;5020733;28;19960;-73
2022/04/02 03:15:25;;;;;;;;;;;2.10;99.90;;;;;;5050828;28;19917;-73
2022/04/02 03:17:52;;;;;;;;;;;2.20;99.90;;;;;;5035248;28;20020;-74
2022/04/02 03:20:20;;;;;;;;;;;2.30;99.90;;;;;;5038662;28;20015;-73
2022/04/02 03:22:47;;;;;;;;;;;2.20;99.90;;;;;;5029427;28;20224;-72
2022/04/02 03:25:13;;;;;;;;;;;2.20;99.90;;;;;;5054209;28;19923;-73
2022/04/02 03:27:39;;;;;;;;;;;2.20;99.90;;;;;;5047895;28;19913;-73
2022/04/02 03:30:06;;;;;;;;;;;2.20;99.90;;;;;;5046912;28;19975;-73
2022/04/02 03:32:32;;;;;;;;;;;2.20;99.90;;;;;;5056659;28;19944;-73
2022/04/02 03:34:58;;;;;;;;;;;2.20;99.90;;;;;;5052637;28;19913;-74
2022/04/02 03:37:24;;;;;;;;;;;2.10;99.90;;;;;;5054885;28;19913;-72
2022/04/02 03:39:50;;;;;;;;;;;2.10;99.90;;;;;;5048309;28;19917;-73
2022/04/02 03:42:16;;;;;;;;;;;2.10;99.90;;;;;;5049404;28;19920;-74
2022/04/02 03:44:41;;;;;;;;;;;2.00;99.90;;;;;;5047342;28;19924;-73
2022/04/02 03:47:10;;;;;;;;;;;2.10;99.90;;;;;;5030302;28;19921;-73
2022/04/02 03:49:39;;;;;;;;;;;2.00;99.90;;;;;;5050199;28;19939;-73
2022/04/02 03:52:06;;;;;;;;;;;2.00;99.90;;;;;;5037377;28;20060;-74
2022/04/02 03:54:32;;;;;;;;;;;2.00;99.90;;;;;;5044414;28;20341;-74
2022/04/02 03:56:57;;;;;;;;;;;2.00;99.90;;;;;;5046963;28;20003;-73
2022/04/02 03:59:23;;;;;;;;;;;2.00;99.90;;;;;;5032469;28;19983;-73
2022/04/02 04:01:49;;;;;;;;;;;2.00;99.90;;;;;;5030863;28;20345;-72
2022/04/02 04:04:14;;;;;;;;;;;1.90;99.90;;;;;;5053381;28;19983;-73
2022/04/02 04:06:40;;;;;;;;;;;1.90;99.90;;;;;;5033528;28;19924;-73
2022/04/02 04:09:06;;;;;;;;;;;1.90;99.90;;;;;;5036096;28;19928;-73
2022/04/02 04:11:33;;;;;;;;;;;1.80;99.90;;;;;;5052425;28;19913;-73
2022/04/02 04:13:58;;;;;;;;;;;1.80;99.90;;;;;;5048724;28;19921;-74
2022/04/02 04:16:24;;;;;;;;;;;1.80;99.90;;;;;;5046327;28;20003;-73
2022/04/02 04:18:49;;;;;;;;;;;1.80;99.90;;;;;;5053089;28;19971;-73
2022/04/02 04:21:15;;;;;;;;;;;1.70;99.90;;;;;;5047683;28;20335;-74
2022/04/02 04:23:42;;;;;;;;;;;1.60;99.90;;;;;;5037483;28;20371;-73
2022/04/02 04:26:08;;;;;;;;;;;1.60;99.90;;;;;;5035499;28;20496;-73
2022/04/02 04:28:33;;;;;;;;;;;1.60;99.90;;;;;;5054186;28;19913;-73
2022/04/02 04:30:59;;;;;;;;;;;1.60;99.90;;;;;;5054809;28;20481;-74
2022/04/02 04:33:25;;;;;;;;;;;1.60;99.90;;;;;;5049692;28;19916;-73
2022/04/02 04:35:50;;;;;;;;;;;1.60;99.90;;;;;;5033827;28;20203;-73
2022/04/02 04:38:16;;;;;;;;;;;1.60;99.90;;;;;;5054464;28;19913;-73
2022/04/02 04:40:41;;;;;;;;;;;1.50;99.90;;;;;;5042861;28;19963;-73
2022/04/02 04:43:07;;;;;;;;;;;1.50;99.90;;;;;;5043069;28;19913;-73
2022/04/02 04:45:33;;;;;;;;;;;1.50;99.90;;;;;;5038402;28;19924;-73
2022/04/02 04:47:59;;;;;;;;;;;1.50;99.90;;;;;;5060376;28;19912;-73
2022/04/02 04:50:25;;;;;;;;;;;1.60;99.90;;;;;;5046287;28;19912;-74
2022/04/02 04:52:50;;;;;;;;;;;1.60;99.90;;;;;;5030312;28;19921;-74
2022/04/02 04:55:16;;;;;;;;;;;1.70;99.90;;;;;;5046102;28;19979;-72
2022/04/02 04:57:41;;;;;;;;;;;1.70;99.90;;;;;;5044712;28;19924;-73
2022/04/02 05:00:07;;;;;;;;;;;1.70;99.90;;;;;;5047813;28;19968;-73
2022/04/02 05:02:33;;;;;;;;;;;1.70;99.90;;;;;;5035871;28;20304;-73
2022/04/02 05:04:58;;;;;;;;;;;1.80;99.90;;;;;;5035377;28;19970;-74
2022/04/02 05:07:24;;;;;;;;;;;1.80;99.90;;;;;;5034746;28;19948;-73
2022/04/02 05:09:50;;;;;;;;;;;1.80;99.90;;;;;;5046824;28;19917;-73
2022/04/02 05:12:15;;;;;;;;;;;1.80;99.90;;;;;;5034387;28;20308;-73
2022/04/02 05:14:41;;;;;;;;;;;1.90;99.90;;;;;;5050219;28;19917;-74
2022/04/02 05:17:07;;;;;;;;;;;2.00;99.90;;;;;;5045411;28;19924;-73
2022/04/02 05:19:33;;;;;;;;;;;2.10;99.90;;;;;;5028742;28;19913;-73
2022/04/02 05:22:00;;;;;;;;;;;2.10;99.90;;;;;;5048729;28;19913;-74
2022/04/02 05:24:26;;;;;;;;;;;2.10;99.90;;;;;;5050786;28;19917;-74
2022/04/02 05:26:51;;;;;;;;;;;2.00;99.90;;;;;;5039808;28;19921;-74
2022/04/02 05:29:17;;;;;;;;;;;2.00;99.90;;;;;;5032565;28;19928;-73
2022/04/02 05:31:43;;;;;;;;;;;2.00;99.90;;;;;;5031395;28;19916;-72
2022/04/02 05:34:11;;;;;;;;;;;2.00;99.90;;;;;;5046679;28;19916;-74
2022/04/02 05:36:38;;;;;;;;;;;2.10;99.90;;;;;;5028092;28;20205;-72
2022/04/02 05:39:04;;;;;;;;;;;2.10;99.90;;;;;;5039365;28;19913;-74
2022/04/02 05:41:30;;;;;;;;;;;2.10;99.90;;;;;;5036505;28;19913;-74
2022/04/02 05:43:55;;;;;;;;;;;2.20;99.90;;;;;;5047055;28;20012;-73
2022/04/02 05:46:22;;;;;;;;;;;2.20;99.90;;;;;;5045145;28;19920;-73
2022/04/02 05:48:48;;;;;;;;;;;2.20;99.90;;;;;;5053735;28;19913;-73
2022/04/02 05:51:14;;;;;;;;;;;2.20;99.90;;;;;;5053632;28;19919;-72
2022/04/02 05:53:39;;;;;;;;;;;2.20;99.90;;;;;;5053408;28;20254;-73
2022/04/02 05:56:05;;;;;;;;;;;2.20;99.90;;;;;;5046654;28;19967;-73
2022/04/02 05:58:31;;;;;;;;;;;2.30;99.90;;;;;;5046964;28;19913;-73
2022/04/02 06:00:56;;;;;;;;;;;2.30;99.90;;;;;;5027457;28;19959;-74
2022/04/02 06:03:22;;;;;;;;;;;2.30;99.90;;;;;;5044490;28;19978;-74
2022/04/02 06:05:51;;;;;;;;;;;2.40;99.90;;;;;;5038382;28;19948;-74
2022/04/02 06:08:16;;;;;;;;;;;2.30;99.90;;;;;;5029474;28;20324;-73
2022/04/02 06:10:44;;;;;;;;;;;2.40;99.90;;;;;;5045899;28;19909;-73
2022/04/02 06:13:10;;;;;;;;;;;2.40;99.90;;;;;;5044692;28;19913;-73
2022/04/02 06:15:35;;;;;;;;;;;2.50;99.90;;;;;;5045998;28;20220;-73
2022/04/02 06:18:01;;;;;;;;;;;2.50;99.90;;;;;;5046401;28;19913;-75
2022/04/02 06:20:26;;;;;;;;;;;2.60;99.90;;;;;;5049419;28;20276;-74
2022/04/02 06:22:53;;;;;;;;;;;2.70;99.90;;;;;;5058604;28;19916;-73
2022/04/02 06:25:18;;;;;;;;;;;2.70;99.90;;;;;;5049431;28;20224;-74
2022/04/02 06:27:45;;;;;;;;;;;2.80;99.90;;;;;;5029065;28;19913;-74
2022/04/02 06:30:11;;;;;;;;;;;2.90;99.90;;;;;;5033907;28;19979;-73
2022/04/02 06:32:38;;;;;;;;;;;2.90;99.90;;;;;;5056979;28;19913;-74
2022/04/02 06:35:04;;;;;;;;;;;2.90;99.90;;;;;;5048447;28;19913;-73
2022/04/02 06:37:36;;;;;;;;;;;2.90;99.90;;;;;;5040858;28;19913;-74
2022/04/02 06:40:02;;;;;;;;;;;2.90;99.90;;;;;;5025290;28;19920;-73
2022/04/02 06:42:28;;;;;;;;;;;3.00;99.90;;;;;;5041313;28;19971;-73
2022/04/02 06:44:54;;;;;;;;;;;3.00;99.90;;;;;;5045918;28;19913;-73
2022/04/02 06:47:23;;;;;;;;;;;3.20;99.90;;;;;;5050760;28;20000;-73
2022/04/02 06:49:49;;;;;;;;;;;3.40;99.90;;;;;;5034327;28;19917;-73
2022/04/02 06:52:15;;;;;;;;;;;3.80;99.90;;;;;;5045637;28;19924;-74
2022/04/02 06:54:41;;;;;;;;;;;4.00;99.90;;;;;;5051797;28;19916;-73
2022/04/02 06:57:06;;;;;;;;;;;4.20;99.90;;;;;;5032211;28;19966;-73
2022/04/02 06:59:32;;;;;;;;;;;4.40;99.90;;;;;;5024338;28;19990;-73
2022/04/02 07:01:58;;;;;;;;;;;4.40;99.90;;;;;;5036033;28;19924;-73
2022/04/02 07:04:23;;;;;;;;;;;4.40;99.90;;;;;;5045021;28;20201;-81
2022/04/02 07:06:49;;;;;;;;;;;4.40;99.90;;;;;;5029967;28;20209;-74
2022/04/02 07:09:17;;;;;;;;;;;4.50;99.90;;;;;;5052846;28;19917;-73
2022/04/02 07:11:42;;;;;;;;;;;4.60;99.90;;;;;;5024758;28;19981;-73
2022/04/02 07:14:09;;;;;;;;;;;4.60;99.90;;;;;;5038334;28;19920;-73
2022/04/02 07:16:35;;;;;;;;;;;4.80;99.90;;;;;;5055766;28;19912;-73
2022/04/02 07:19:01;;;;;;;;;;;4.80;99.90;;;;;;5052417;28;19913;-73
2022/04/02 07:21:27;;;;;;;;;;;4.90;99.90;;;;;;5052937;28;20210;-74
2022/04/02 07:23:53;;;;;;;;;;;5.00;99.90;;;;;;5034899;28;19913;-73
2022/04/02 07:26:19;;;;;;;;;;;5.10;99.90;;;;;;5052140;28;20211;-73
2022/04/02 07:28:45;;;;;;;;;;;5.40;99.90;;;;;;5043066;28;19991;-74
2022/04/02 07:31:10;;;;;;;;;;;5.20;99.90;;;;;;5052277;28;19920;-73
2022/04/02 07:33:36;;;;;;;;;;;4.90;99.90;;;;;;5028691;28;20258;-73
2022/04/02 07:36:05;;;;;;;;;;;5.10;99.90;;;;;;5047191;28;19917;-74
2022/04/02 07:38:36;;;;;;;;;;;5.20;99.90;;;;;;5052255;28;20310;-73
2022/04/02 07:41:31;;;;;;;;;;;5.00;99.90;;;;;;5031086;28;20003;-73
2022/04/02 07:44:07;;;;;;;;;;;5.10;99.90;;;;;;5038746;28;19920;-72
2022/04/02 07:46:33;;;;;;;;;;;5.10;99.90;;;;;;5053572;28;19921;-73
2022/04/02 07:48:58;;;;;;;;;;;5.10;99.90;;;;;;5053642;28;19986;-73
2022/04/02 07:51:28;;;;;;;;;;;5.20;99.90;;;;;;5050357;28;19936;-72
2022/04/02 07:53:54;;;;;;;;;;;5.00;99.90;;;;;;5036825;28;19917;-73
2022/04/02 07:56:30;;;;;;;;;;;5.00;99.90;;;;;;5034373;28;20011;-73
2022/04/02 07:59:00;;;;;;;;;;;5.10;99.90;;;;;;5049844;28;19912;-73
2022/04/02 08:01:26;;;;;;;;;;;5.10;99.90;;;;;;5052193;28;20303;-73
2022/04/02 08:03:52;;;;;;;;;;;5.30;99.90;;;;;;5052009;28;19916;-75
2022/04/02 08:06:21;;;;;;;;;;;5.30;99.90;;;;;;5055533;28;20359;-73
2022/04/02 08:08:47;;;;;;;;;;;5.30;99.90;;;;;;5045482;28;20538;-73
2022/04/02 08:11:15;;;;;;;;;;;5.40;99.90;;;;;;5044798;28;20332;-73
2022/04/02 08:13:41;;;;;;;;;;;5.40;99.90;;;;;;5046975;28;19917;-72
2022/04/02 08:16:08;;;;;;;;;;;5.60;99.90;;;;;;5043801;28;19947;-73
2022/04/02 08:18:33;;;;;;;;;;;5.60;99.90;;;;;;5045118;28;19919;-74
2022/04/02 08:20:59;;;;;;;;;;;5.80;99.90;;;;;;5046938;28;20305;-74
2022/04/02 08:23:24;;;;;;;;;;;5.90;99.90;;;;;;5049163;28;19917;-73
2022/04/02 08:26:01;;;;;;;;;;;5.70;99.90;;;;;;5050606;28;20227;-80
2022/04/02 08:28:35;;;;;;;;;;;5.70;99.50;;;;;;5036985;28;19924;-74
2022/04/02 08:31:12;;;;;;;;;;;5.40;99.80;;;;;;5066630;28;20324;-74
2022/04/02 08:33:37;;;;;;;;;;;5.40;99.90;;;;;;5036847;28;20052;-73
2022/04/02 08:36:13;;;;;;;;;;;5.50;99.90;;;;;;5036998;28;20306;-73
2022/04/02 08:38:42;;;;;;;;;;;5.50;99.80;;;;;;5036551;28;21248;-73
2022/04/02 08:41:13;;;;;;;;;;;5.60;99.90;;;;;;5042102;28;19928;-80
2022/04/02 08:43:47;;;;;;;;;;;5.60;99.90;;;;;;5042185;28;19913;-73
2022/04/02 08:46:13;;;;;;;;;;;5.60;99.90;;;;;;5040244;28;19916;-73
2022/04/02 08:48:45;;;;;;;;;;;5.60;99.90;;;;;;5042360;28;19913;-80
2022/04/02 08:51:15;;;;;;;;;;;5.90;99.90;;;;;;5027765;28;19913;-73
2022/04/02 08:53:50;;;;;;;;;;;5.90;99.90;;;;;;5034011;28;20051;-75
2022/04/02 08:56:25;;;;;;;;;;;5.70;99.50;;;;;;5034800;28;20219;-75
2022/04/02 08:58:56;;;;;;;;;;;5.40;99.90;;;;;;5027323;28;19913;-75
2022/04/02 09:01:24;;;;;;;;;;;5.60;99.90;;;;;;5053345;28;20004;-75
2022/04/02 09:03:49;;;;;;;;;;;5.30;99.90;;;;;;5046366;28;19913;-76
2022/04/02 09:06:18;;;;;;;;;;;5.10;99.90;;;;;;5052388;28;20235;-74
2022/04/02 09:09:02;;;;;;;;;;;5.30;99.90;;;;;;5039504;28;20212;-75
2022/04/02 09:11:31;;;;;;;;;;;5.60;99.90;;;;;;5057054;28;19917;-76
2022/04/02 09:13:59;;;;;;;;;;;5.50;99.70;;;;;;5042551;28;19913;-74
2022/04/02 09:16:26;;;;;;;;;;;5.40;99.90;;;;;;5019412;28;20039;-74
2022/04/02 09:18:55;;;;;;;;;;;5.10;99.90;;;;;;5051683;28;19955;-74
2022/04/02 09:21:26;;;;;;;;;;;5.00;99.90;;;;;;5026630;28;19921;-74
2022/04/02 09:24:01;;;;;;;;;;;5.40;99.90;;;;;;5026189;28;19917;-75
2022/04/02 09:26:45;;;;;;;;;;;5.50;99.90;;;;;;5045193;28;19924;-73
2022/04/02 09:29:16;;;;;;;;;;;5.80;99.90;;;;;;5043065;28;19921;-72
2022/04/02 09:32:00;;;;;;;;;;;5.70;99.90;;;;;;5044267;28;20635;-74
2022/04/02 09:34:48;;;;;;;;;;;5.70;99.90;;;;;;5047846;28;20362;-74
2022/04/02 09:37:23;;;;;;;;;;;5.70;99.30;;;;;;5014355;28;20024;-75
2022/04/02 09:40:01;;;;;;;;;;;5.70;98.60;;;;;;5047876;28;20344;-74
2022/04/02 09:42:37;;;;;;;;;;;5.70;99.40;;;;;;5032714;28;19943;-75
2022/04/02 09:45:04;;;;;;;;;;;5.50;99.60;;;;;;5042038;28;19917;-74
2022/04/02 09:47:39;;;;;;;;;;;5.50;99.90;;;;;;5059842;28;19917;-74
2022/04/02 09:50:15;;;;;;;;;;;5.20;99.10;;;;;;5047015;28;19913;-73
2022/04/02 09:52:43;;;;;;;;;;;5.00;99.90;;;;;;5045292;28;19917;-74
2022/04/02 09:55:12;;;;;;;;;;;5.00;99.90;;;;;;5058325;28;19912;-73
2022/04/02 09:57:44;;;;;;;;;;;4.60;98.70;;;;;;5048004;28;19920;-73
2022/04/02 10:00:10;;;;;;;;;;;4.50;99.90;;;;;;5044141;28;20403;-72
2022/04/02 10:02:38;;;;;;;;;;;4.40;99.90;;;;;;5058149;28;19959;-73
2022/04/02 10:05:07;;;;;;;;;;;4.50;99.90;;;;;;5054645;28;19958;-74
2022/04/02 10:07:40;;;;;;;;;;;4.50;99.90;;;;;;5049367;28;20280;-74
2022/04/02 10:10:06;;;;;;;;;;;4.40;99.00;;;;;;5035445;28;20015;-73
2022/04/02 10:12:36;;;;;;;;;;;4.60;98.20;;;;;;5042901;28;19917;-73
2022/04/02 10:15:03;;;;;;;;;;;4.50;99.80;;;;;;5023195;28;19920;-73
2022/04/02 10:17:29;;;;;;;;;;;4.50;99.90;;;;;;5037876;28;19921;-74
2022/04/02 10:19:58;;;;;;;;;;;4.60;99.90;;;;;;5042565;28;19921;-73
2022/04/02 10:22:36;;;;;;;;;;;4.70;99.90;;;;;;5050709;28;20292;-73
2022/04/02 10:25:05;;;;;;;;;;;4.70;99.90;;;;;;5036862;28;20055;-76
2022/04/02 10:27:32;;;;;;;;;;;4.80;99.90;;;;;;5021382;28;19913;-75
2022/04/02 10:30:00;;;;;;;;;;;4.60;99.90;;;;;;5034257;28;20008;-73
2022/04/02 10:32:29;;;;;;;;;;;4.50;99.90;;;;;;5047067;28;19917;-73
2022/04/02 10:34:56;;;;;;;;;;;4.40;99.90;;;;;;5029016;28;19932;-74
2022/04/02 10:37:24;;;;;;;;;;;4.30;99.90;;;;;;5044950;28;19956;-73
2022/04/02 10:39:52;;;;;;;;;;;4.70;99.90;;;;;;5033457;28;20300;-74
2022/04/02 10:42:19;;;;;;;;;;;5.10;99.90;;;;;;5034450;28;20387;-73
2022/04/02 10:44:51;;;;;;;;;;;5.20;98.90;;;;;;5049848;28;20626;-73
2022/04/02 10:47:20;;;;;;;;;;;5.30;99.90;;;;;;5045003;28;19962;-74
2022/04/02 10:49:48;;;;;;;;;;;5.00;99.90;;;;;;5054889;28;19913;-75
2022/04/02 10:52:15;;;;;;;;;;;5.20;99.30;;;;;;5054373;28;20011;-75
2022/04/02 10:54:41;;;;;;;;;;;5.50;99.90;;;;;;5020036;28;19922;-74
2022/04/02 10:57:06;;;;;;;;;;;5.80;98.70;;;;;;5037052;28;19921;-73
2022/04/02 10:59:33;;;;;;;;;;;5.70;96.40;;;;;;5055446;28;19932;-76
2022/04/02 11:01:59;;;;;;;;;;;5.70;95.20;;;;;;5036632;28;19913;-77
2022/04/02 11:04:30;;;;;;;;;;;5.90;96.00;;;;;;5053484;28;19917;-74
2022/04/02 11:06:57;;;;;;;;;;;5.80;96.10;;;;;;5050414;28;19921;-74
2022/04/02 11:09:41;;;;;;;;;;;5.80;93.50;;;;;;5054165;28;19928;-73
2022/04/02 11:12:11;;;;;;;;;;;5.70;95.00;;;;;;5031656;28;20211;-75
2022/04/02 11:14:41;;;;;;;;;;;6.00;95.00;;;;;;5028794;28;19913;-74
2022/04/02 11:17:06;;;;;;;;;;;5.90;93.80;;;;;;5027358;28;19920;-74
2022/04/02 11:19:54;;;;;;;;;;;5.80;94.90;;;;;;5044654;28;19924;-75
2022/04/02 11:22:25;;;;;;;;;;;5.80;93.70;;;;;;5026781;28;19920;-74
2022/04/02 11:24:50;;;;;;;;;;;5.90;94.90;;;;;;5045225;28;20398;-73
2022/04/02 11:27:18;;;;;;;;;;;6.10;94.50;;;;;;5044995;28;19917;-72
2022/04/02 11:29:48;;;;;;;;;;;6.10;93.60;;;;;;5046863;28;19921;-74
2022/04/02 11:32:15;;;;;;;;;;;6.10;95.30;;;;;;5052814;28;20200;-73
2022/04/02 11:34:42;;;;;;;;;;;5.90;97.60;;;;;;5052677;28;19928;-74
2022/04/02 11:37:09;;;;;;;;;;;6.30;97.50;;;;;;5047129;28;19995;-74
2022/04/02 11:39:46;;;;;;;;;;;6.10;94.80;;;;;;5046749;28;19925;-75
2022/04/02 11:42:13;;;;;;;;;;;6.20;94.30;;;;;;5045357;28;20054;-74
2022/04/02 11:44:39;;;;;;;;;;;6.10;93.00;;;;;;5030347;28;19923;-77
2022/04/02 11:47:05;;;;;;;;;;;5.90;92.90;;;;;;5030156;28;19916;-74
2022/04/02 11:49:32;;;;;;;;;;;6.00;94.30;;;;;;5045234;28;19912;-74
2022/04/02 11:52:06;;;;;;;;;;;6.10;94.10;;;;;;5029572;28;20004;-73
2022/04/02 11:54:37;;;;;;;;;;;6.00;95.50;;;;;;5047774;28;20258;-73
2022/04/02 11:57:07;;;;;;;;;;;6.00;94.60;;;;;;5047027;28;19917;-74
2022/04/02 11:59:34;;;;;;;;;;;6.10;95.20;;;;;;5027624;28;19924;-74
2022/04/02 12:02:00;;;;;;;;;;;6.20;93.80;;;;;;5027116;28;19917;-76
2022/04/02 12:04:26;;;;;;;;;;;6.10;94.60;;;;;;5029323;28;20205;-74
2022/04/02 12:06:52;;;;;;;;;;;6.10;95.60;;;;;;5049999;28;19921;-75
2022/04/02 12:09:22;;;;;;;;;;;6.00;93.90;;;;;;5051233;28;20571;-73
2022/04/02 12:11:51;;;;;;;;;;;5.80;95.10;;;;;;5035467;28;20319;-75
2022/04/02 12:14:33;;;;;;;;;;;5.80;95.80;;;;;;5036878;28;19919;-72
2022/04/02 12:17:03;;;;;;;;;;;5.80;96.60;;;;;;5054540;28;19928;-74
2022/04/02 12:19:37;;;;;;;;;;;5.70;95.10;;;;;;5050421;28;19932;-75
2022/04/02 12:22:14;;;;;;;;;;;5.50;96.80;;;;;;5051986;28;20334;-74
2022/04/02 12:24:41;;;;;;;;;;;5.40;98.30;;;;;;5051482;28;20322;-74
2022/04/02 12:27:07;;;;;;;;;;;5.70;96.90;;;;;;5035326;28;20050;-75
2022/04/02 12:29:33;;;;;;;;;;;6.00;98.10;;;;;;5019525;28;20015;-73
2022/04/02 12:32:00;;;;;;;;;;;6.30;93.70;;;;;;5053935;28;19913;-74
2022/04/02 12:34:26;;;;;;;;;;;6.50;95.90;;;;;;5052701;28;20338;-75
2022/04/02 12:37:00;;;;;;;;;;;6.50;95.10;;;;;;5053325;28;20199;-75
2022/04/02 12:39:26;;;;;;;;;;;6.30;95.60;;;;;;5051760;28;19917;-77
2022/04/02 12:41:51;;;;;;;;;;;6.50;98.80;;;;;;5050613;28;19923;-74
2022/04/02 12:44:21;;;;;;;;;;;6.60;97.00;;;;;;5051607;28;19958;-75
2022/04/02 12:46:46;;;;;;;;;;;6.30;97.00;;;;;;5050360;28;19916;-74
2022/04/02 12:49:32;;;;;;;;;;;5.90;96.30;;;;;;5053166;28;19924;-74
2022/04/02 12:52:16;;;;;;;;;;;5.50;96.90;;;;;;5052789;28;19917;-74
2022/04/02 12:54:50;;;;;;;;;;;5.30;97.50;;;;;;5049098;28;19959;-74
2022/04/02 12:57:16;;;;;;;;;;;5.80;97.70;;;;;;5034479;28;20035;-74
2022/04/02 12:59:52;;;;;;;;;;;5.90;96.40;;;;;;5035669;28;19921;-75
2022/04/02 13:02:22;;;;;;;;;;;5.90;96.40;;;;;;5047690;28;20002;-75
2022/04/02 13:04:55;;;;;;;;;;;6.00;95.50;;;;;;5051612;28;19913;-74
2022/04/02 13:07:21;;;;;;;;;;;6.10;96.60;;;;;;5048918;28;19925;-75
2022/04/02 13:09:51;;;;;;;;;;;6.40;96.50;;;;;;5052327;28;19920;-73
2022/04/02 13:12:21;;;;;;;;;;;6.40;96.20;;;;;;5051541;28;19913;-74
2022/04/02 13:14:52;;;;;;;;;;;6.40;96.50;;;;;;5051702;28;20277;-75
2022/04/02 13:17:18;;;;;;;;;;;6.40;96.10;;;;;;5035576;28;19918;-74
2022/04/02 13:22:28;;;;;;;;;;;6.40;97.10;;;;;;5051570;28;20432;-73
2022/04/02 13:24:57;;;;;;;;;;;6.60;96.80;;;;;;5050703;28;20029;-75
2022/04/02 13:27:23;;;;;;;;;;;6.70;96.10;;;;;;5047777;28;20219;-74
2022/04/02 13:29:55;;;;;;;;;;;6.80;97.50;;;;;;5026124;28;19958;-73
2022/04/02 13:32:35;;;;;;;;;;;6.80;97.20;;;;;;5057027;28;19921;-73
2022/04/02 13:35:21;;;;;;;;;;;6.60;97.20;;;;;;5032394;28;20531;-74
2022/04/02 13:37:49;;;;;;;;;;;6.50;98.50;;;;;;5032618;28;19992;-74
2022/04/02 13:40:17;;;;;;;;;;;6.40;96.20;;;;;;5032331;28;19966;-74
2022/04/02 13:42:50;;;;;;;;;;;6.30;96.80;;;;;;5032500;28;19920;-75
2022/04/02 13:45:16;;;;;;;;;;;6.40;97.30;;;;;;5033312;28;20566;-74
2022/04/02 13:47:43;;;;;;;;;;;6.30;98.20;;;;;;5032174;28;19921;-74
2022/04/02 13:50:10;;;;;;;;;;;6.30;97.30;;;;;;5033756;28;19913;-74
2022/04/02 13:52:37;;;;;;;;;;;6.00;97.40;;;;;;5031282;28;20301;-74
2022/04/02 13:55:07;;;;;;;;;;;6.00;98.60;;;;;;5025687;28;19921;-74
2022/04/02 13:57:33;;;;;;;;;;;6.00;96.70;;;;;;5028537;28;19996;-74
2022/04/02 14:00:11;;;;;;;;;;;5.90;96.90;;;;;;5027047;28;20008;-74
2022/04/02 14:02:38;;;;;;;;;;;5.80;97.10;;;;;;5060334;28;20198;-78
2022/04/02 14:05:09;;;;;;;;;;;6.10;97.70;;;;;;5030276;28;19921;-74
2022/04/02 14:07:36;;;;;;;;;;;6.10;96.30;;;;;;5031596;28;19944;-74
2022/04/02 14:10:06;;;;;;;;;;;6.20;96.10;;;;;;5032275;28;20004;-74
2022/04/02 14:12:37;;;;;;;;;;;6.30;95.50;;;;;;5029794;28;19917;-73
2022/04/02 14:15:10;;;;;;;;;;;6.40;96.50;;;;;;5028748;28;19917;-74
2022/04/02 14:17:39;;;;;;;;;;;6.20;96.80;;;;;;5030016;28;20351;-75
2022/04/02 14:20:07;;;;;;;;;;;5.80;98.50;;;;;;5030082;28;19994;-74
2022/04/02 14:22:55;;;;;;;;;;;5.70;99.40;;;;;;5031062;28;19921;-74
2022/04/02 14:25:30;;;;;;;;;;;5.60;99.10;;;;;;5024755;28;20323;-74
2022/04/02 14:28:12;;;;;;;;;;;5.60;99.90;;;;;;5030857;28;19917;-74
2022/04/02 14:30:48;;;;;;;;;;;5.60;98.50;;;;;;5024612;28;19921;-75
2022/04/02 14:33:29;;;;;;;;;;;5.60;98.00;;;;;;5029232;28;19975;-74
2022/04/02 14:36:01;;;;;;;;;;;5.60;96.70;;;;;;5030676;28;20331;-74
2022/04/02 14:38:44;;;;;;;;;;;5.70;97.50;;;;;;5032615;28;20308;-75
2022/04/02 14:41:25;;;;;;;;;;;5.80;95.70;;;;;;5032892;28;19920;-75